createdAt,value
2023-10-03T00:01:22.668Z,101173.69
2023-10-03T00:03:54.432Z,101161.75
2023-10-03T00:06:23.912Z,101157.13
2023-10-03T00:08:55.469Z,101144.22
2023-10-03T00:11:24.850Z,101131.94
2023-10-03T00:13:55.080Z,101128.00
2023-10-03T00:16:24.237Z,101121.19
2023-10-03T00:18:53.382Z,101111.09
2023-10-03T00:21:22.624Z,101108.00
2023-10-03T00:23:53.279Z,101107.53
2023-10-03T00:26:23.460Z,101113.19
2023-10-03T00:28:53.003Z,101118.66
2023-10-03T00:31:23.043Z,101123.47
2023-10-03T00:33:52.439Z,101114.06
2023-10-03T00:36:26.089Z,101098.84
2023-10-03T00:38:56.701Z,101098.53
2023-10-03T00:41:26.404Z,101094.41
2023-10-03T00:43:59.301Z,101096.56
2023-10-03T00:46:31.061Z,101092.28
2023-10-03T00:49:06.261Z,101088.13
2023-10-03T00:51:36.492Z,101080.00
2023-10-03T00:54:07.762Z,101080.19
2023-10-03T00:56:37.517Z,101080.84
2023-10-03T00:59:09.573Z,101071.91
2023-10-03T01:01:39.810Z,101071.88
2023-10-03T01:04:17.330Z,101068.03
2023-10-03T01:06:47.338Z,101059.09
2023-10-03T01:09:25.097Z,101046.97
2023-10-03T01:11:54.700Z,101048.28
2023-10-03T01:14:24.393Z,101040.31
2023-10-03T01:16:54.018Z,101032.34
2023-10-03T01:19:26.869Z,101024.41
2023-10-03T01:21:56.028Z,101029.38
2023-10-03T01:24:27.327Z,101010.22
2023-10-03T01:26:58.253Z,101003.28
2023-10-03T01:29:27.514Z,100997.00
2023-10-03T01:31:56.771Z,100996.50
2023-10-03T01:34:26.056Z,100987.75
2023-10-03T01:36:55.256Z,100992.03
2023-10-03T01:39:25.997Z,100976.53
2023-10-03T01:41:55.273Z,100976.38
2023-10-03T01:44:24.668Z,100963.16
2023-10-03T01:46:54.366Z,100951.25
2023-10-03T01:49:26.348Z,100942.97
2023-10-03T01:51:55.699Z,100949.09
2023-10-03T01:54:26.312Z,100937.19
2023-10-03T01:56:57.723Z,100931.56
2023-10-03T01:59:27.047Z,100924.59
2023-10-03T02:01:56.380Z,100916.00
2023-10-03T02:04:30.094Z,100920.63
2023-10-03T02:06:59.709Z,100913.03
2023-10-03T02:09:30.273Z,100909.41
2023-10-03T02:12:00.636Z,100894.34
2023-10-03T02:14:31.690Z,100886.22
2023-10-03T02:17:00.978Z,100877.94
2023-10-03T02:19:30.309Z,100875.00
2023-10-03T02:22:00.574Z,100875.00
2023-10-03T02:24:33.486Z,100878.44
2023-10-03T02:27:07.313Z,100865.06
2023-10-03T02:29:36.604Z,100849.31
2023-10-03T02:32:09.082Z,100848.00
2023-10-03T02:34:40.876Z,100845.88
2023-10-03T02:37:10.165Z,100836.59
2023-10-03T02:39:42.087Z,100835.28
2023-10-03T02:42:11.394Z,100832.63
2023-10-03T02:44:41.409Z,100825.50
2023-10-03T02:47:11.813Z,100811.75
2023-10-03T02:49:41.466Z,100797.19
2023-10-03T02:52:11.288Z,100790.22
2023-10-03T02:54:42.080Z,100777.03
2023-10-03T02:57:11.221Z,100769.09
2023-10-03T02:59:41.170Z,100756.16
2023-10-03T03:02:12.470Z,100751.19
2023-10-03T03:04:42.299Z,100728.38
2023-10-03T03:07:12.308Z,100718.78
2023-10-03T03:09:42.841Z,100717.78
2023-10-03T03:12:12.148Z,100708.53
2023-10-03T03:14:41.840Z,100700.25
2023-10-03T03:17:15.504Z,100689.47
2023-10-03T03:19:46.100Z,100685.38
2023-10-03T03:22:17.155Z,100668.81
2023-10-03T03:24:52.821Z,100662.88
2023-10-03T03:27:27.368Z,100643.38
2023-10-03T03:30:10.583Z,100638.72
2023-10-03T03:32:39.881Z,100643.69
2023-10-03T03:35:10.580Z,100632.44
2023-10-03T03:37:41.345Z,100625.34
2023-10-03T03:40:26.177Z,100629.09
2023-10-03T03:42:55.292Z,100617.91
2023-10-03T03:45:24.388Z,100602.66
2023-10-03T03:47:53.754Z,100598.03
2023-10-03T03:50:23.269Z,100584.50
2023-10-03T03:52:53.000Z,100591.09
2023-10-03T03:55:24.297Z,100589.75
2023-10-03T03:57:53.587Z,100584.63
2023-10-03T04:00:24.090Z,100580.16
2023-10-03T04:02:53.538Z,100581.31
2023-10-03T04:05:23.262Z,100578.69
2023-10-03T04:07:52.590Z,100564.63
2023-10-03T04:10:23.645Z,100558.97
2023-10-03T04:12:52.885Z,100545.94
2023-10-03T04:15:22.151Z,100534.41
2023-10-03T04:17:51.582Z,100524.59
2023-10-03T04:20:26.816Z,100516.84
2023-10-03T04:22:56.544Z,100514.22
2023-10-03T04:25:27.939Z,100516.03
2023-10-03T04:27:58.393Z,100507.94
2023-10-03T04:30:28.122Z,100505.09
2023-10-03T04:32:58.438Z,100507.41
2023-10-03T04:35:29.884Z,100499.28
2023-10-03T04:37:59.427Z,100501.25
2023-10-03T04:40:32.709Z,100492.84
2023-10-03T04:43:06.737Z,100493.03
2023-10-03T04:45:36.777Z,100480.91
2023-10-03T04:48:06.978Z,100485.72
2023-10-03T04:50:40.396Z,100463.34
2023-10-03T04:53:15.474Z,100427.97
2023-10-03T04:55:49.255Z,100398.22
2023-10-03T04:58:19.348Z,100394.75
2023-10-03T05:00:48.904Z,100369.81
2023-10-03T05:03:20.845Z,100379.34
2023-10-03T05:05:51.272Z,100375.19
2023-10-03T05:08:20.567Z,100377.16
2023-10-03T05:10:55.395Z,100384.28
2023-10-03T05:13:24.647Z,100382.97
2023-10-03T05:15:55.297Z,100373.41
2023-10-03T05:18:24.775Z,100372.28
2023-10-03T05:20:59.097Z,100373.41
2023-10-03T05:23:28.415Z,100370.94
2023-10-03T05:25:59.072Z,100362.41
2023-10-03T05:28:28.341Z,100360.38
2023-10-03T05:31:00.307Z,100353.81
2023-10-03T05:33:29.660Z,100350.41
2023-10-03T05:35:58.939Z,100354.69
2023-10-03T05:38:28.188Z,100343.28
2023-10-03T05:40:58.768Z,100337.06
2023-10-03T05:43:27.954Z,100340.16
2023-10-03T05:45:57.575Z,100334.72
2023-10-03T05:48:26.941Z,100355.53
2023-10-03T05:50:56.810Z,100338.81
2023-10-03T05:53:26.523Z,100332.63
2023-10-03T05:55:55.806Z,100327.00
2023-10-03T05:58:28.029Z,100320.59
2023-10-03T06:00:57.247Z,100324.53
2023-10-03T06:03:26.792Z,100321.88
2023-10-03T06:05:56.290Z,100325.44
2023-10-03T06:08:25.622Z,100329.59
2023-10-03T06:10:57.801Z,100327.97
2023-10-03T06:13:28.486Z,100330.44
2023-10-03T06:16:00.191Z,100323.13
2023-10-03T06:18:29.582Z,100318.31
2023-10-03T06:20:59.623Z,100313.63
2023-10-03T06:23:29.215Z,100304.94
2023-10-03T06:25:58.575Z,100301.41
2023-10-03T06:28:29.849Z,100302.56
2023-10-03T06:30:59.072Z,100298.66
2023-10-03T06:33:29.369Z,100305.94
2023-10-03T06:35:58.714Z,100299.81
2023-10-03T06:38:28.412Z,100297.91
2023-10-03T06:40:57.923Z,100289.41
2023-10-03T06:43:28.409Z,100288.47
2023-10-03T06:45:57.601Z,100286.31
2023-10-03T06:48:26.765Z,100281.47
2023-10-03T06:50:57.344Z,100286.97
2023-10-03T06:53:26.643Z,100290.53
2023-10-03T06:55:58.270Z,100283.66
2023-10-03T06:58:29.558Z,100280.28
2023-10-03T07:00:58.981Z,100292.56
2023-10-03T07:03:28.388Z,100285.34
2023-10-03T07:05:58.139Z,100286.44
2023-10-03T07:08:28.074Z,100284.69
2023-10-03T07:10:58.249Z,100288.88
2023-10-03T07:13:28.882Z,100272.25
2023-10-03T07:15:59.910Z,100270.34
2023-10-03T07:18:29.140Z,100270.28
2023-10-03T07:20:58.649Z,100279.13
2023-10-03T07:23:28.244Z,100270.66
2023-10-03T07:25:57.464Z,100267.63
2023-10-03T07:28:28.039Z,100254.63
2023-10-03T07:30:57.406Z,100254.44
2023-10-03T07:33:26.809Z,100262.63
2023-10-03T07:35:58.007Z,100255.47
2023-10-03T07:38:29.788Z,100272.28
2023-10-03T07:40:59.023Z,100264.69
2023-10-03T07:43:29.913Z,100283.13
2023-10-03T07:45:59.943Z,100281.88
2023-10-03T07:48:30.970Z,100291.09
2023-10-03T07:51:00.477Z,100297.66
2023-10-03T07:53:31.059Z,100297.25
2023-10-03T07:56:00.994Z,100287.59
2023-10-03T07:58:33.904Z,100296.63
2023-10-03T08:01:05.746Z,100281.47
2023-10-03T08:03:35.696Z,100291.13
2023-10-03T08:06:05.183Z,100306.09
2023-10-03T08:08:35.167Z,100261.19
2023-10-03T08:11:07.981Z,100278.81
2023-10-03T08:13:40.488Z,100267.56
2023-10-03T08:16:09.913Z,100270.00
2023-10-03T08:18:47.587Z,100275.94
2023-10-03T08:21:17.082Z,100275.31
2023-10-03T08:23:52.815Z,100280.47
2023-10-03T08:26:22.836Z,100290.47
2023-10-03T08:29:05.324Z,100280.03
2023-10-03T08:31:39.928Z,100275.66
2023-10-03T08:34:11.957Z,100269.91
2023-10-03T08:36:41.174Z,100265.50
2023-10-03T08:39:13.734Z,100259.72
2023-10-03T08:41:49.159Z,100272.63
2023-10-03T08:44:21.424Z,100276.53
2023-10-03T08:46:56.583Z,100269.78
2023-10-03T08:49:39.282Z,100278.47
2023-10-03T08:52:10.931Z,100296.00
2023-10-03T08:54:40.580Z,100271.38
2023-10-03T08:57:12.129Z,100274.84
2023-10-03T08:59:42.696Z,100289.97
2023-10-03T09:02:15.760Z,100279.59
2023-10-03T09:04:45.715Z,100280.50
2023-10-03T09:07:15.026Z,100275.91
2023-10-03T09:09:46.521Z,100281.91
2023-10-03T09:12:16.200Z,100289.44
2023-10-03T09:14:54.593Z,100278.44
2023-10-03T09:17:25.158Z,100287.69
2023-10-03T09:19:54.369Z,100288.13
2023-10-03T09:22:33.079Z,100275.78
2023-10-03T09:25:02.316Z,100269.59
2023-10-03T09:27:32.404Z,100276.25
2023-10-03T09:30:11.313Z,100295.47
2023-10-03T09:32:41.441Z,100301.72
2023-10-03T09:35:11.972Z,100289.66
2023-10-03T09:37:44.799Z,100285.59
2023-10-03T09:40:19.097Z,100297.75
2023-10-03T09:42:50.273Z,100294.63
2023-10-03T09:45:26.193Z,100288.38
2023-10-03T09:48:07.355Z,100287.19
2023-10-03T09:50:37.305Z,100289.53
2023-10-03T09:53:07.641Z,100270.50
2023-10-03T09:55:42.474Z,100304.63
2023-10-03T09:58:12.601Z,100292.13
2023-10-03T10:00:52.222Z,100289.34
2023-10-03T10:03:28.552Z,100288.13
2023-10-03T10:06:15.119Z,100303.97
2023-10-03T10:08:50.709Z,100301.53
2023-10-03T10:11:23.829Z,100295.41
2023-10-03T10:14:11.273Z,100317.53
2023-10-03T10:17:15.445Z,100297.47
2023-10-03T10:20:14.240Z,100306.03
2023-10-03T10:23:21.377Z,100304.03
2023-10-03T10:25:58.054Z,100314.88
2023-10-03T10:28:29.183Z,100330.06
2023-10-03T10:31:32.896Z,100327.19
2023-10-03T10:34:31.981Z,100326.59
2023-10-03T10:37:04.403Z,100323.28
2023-10-03T10:40:22.819Z,100346.22
2023-10-03T10:43:00.843Z,100366.63
2023-10-03T10:45:39.078Z,100378.78
2023-10-03T10:48:09.623Z,100404.84
2023-10-03T10:51:11.779Z,100411.16
2023-10-03T10:53:48.360Z,100437.03
2023-10-03T10:56:17.963Z,100459.34
2023-10-03T10:58:52.772Z,100477.34
2023-10-03T11:01:22.542Z,100488.38
2023-10-03T11:03:52.140Z,100492.41
2023-10-03T11:06:24.647Z,100501.28
2023-10-03T11:08:55.667Z,100501.00
2023-10-03T11:11:36.504Z,100500.56
2023-10-03T11:14:05.725Z,100500.56
2023-10-03T11:16:34.865Z,100494.97
2023-10-03T11:19:05.466Z,100504.03
2023-10-03T11:21:34.943Z,100513.91
2023-10-03T11:24:15.746Z,100517.59
2023-10-03T11:26:51.003Z,100517.41
2023-10-03T11:29:39.765Z,100520.69
2023-10-03T11:32:21.128Z,100511.63
2023-10-03T11:34:50.581Z,100517.34
2023-10-03T11:37:41.289Z,100520.69
2023-10-03T11:40:15.584Z,100525.75
2023-10-03T11:42:55.404Z,100537.13
2023-10-03T11:45:30.424Z,100547.66
2023-10-03T11:48:09.202Z,100555.06
2023-10-03T11:50:40.934Z,100544.03
2023-10-03T11:53:11.158Z,100549.44
2023-10-03T11:55:43.430Z,100558.75
2023-10-03T11:58:13.629Z,100558.94
2023-10-03T12:00:45.793Z,100572.66
2023-10-03T12:03:15.813Z,100576.09
2023-10-03T12:05:46.970Z,100585.56
2023-10-03T12:08:16.177Z,100601.25
2023-10-03T12:10:46.896Z,100601.81
2023-10-03T12:13:16.860Z,100617.81
2023-10-03T12:15:47.342Z,100618.34
2023-10-03T12:18:17.686Z,100619.38
2023-10-03T12:20:47.146Z,100637.00
2023-10-03T12:23:17.022Z,100631.75
2023-10-03T12:25:47.628Z,100636.44
2023-10-03T12:28:18.396Z,100647.56
2023-10-03T12:30:47.517Z,100654.09
2023-10-03T12:33:17.834Z,100664.03
2023-10-03T12:35:47.699Z,100665.59
2023-10-03T12:38:17.858Z,100661.28
2023-10-03T12:40:49.731Z,100669.47
2023-10-03T12:43:19.028Z,100671.69
2023-10-03T12:45:48.989Z,100674.31
2023-10-03T12:48:18.820Z,100676.13
2023-10-03T12:50:49.138Z,100680.75
2023-10-03T12:53:18.387Z,100672.38
2023-10-03T12:55:50.474Z,100673.59
2023-10-03T12:58:23.805Z,100678.44
2023-10-03T13:00:54.013Z,100675.28
2023-10-03T13:03:24.055Z,100682.69
2023-10-03T13:05:57.295Z,100684.59
2023-10-03T13:08:27.817Z,100690.75
2023-10-03T13:11:02.717Z,100698.19
2023-10-03T13:13:33.581Z,100701.16
2023-10-03T13:16:04.012Z,100706.28
2023-10-03T13:18:34.298Z,100722.34
2023-10-03T13:21:05.195Z,100720.34
2023-10-03T13:23:35.517Z,100735.19
2023-10-03T13:26:06.488Z,100743.66
2023-10-03T13:28:36.950Z,100743.97
2023-10-03T13:31:07.436Z,100764.44
2023-10-03T13:33:39.153Z,100767.06
2023-10-03T13:36:10.085Z,100771.03
2023-10-03T13:38:40.985Z,100784.75
2023-10-03T13:41:13.020Z,100792.66
2023-10-03T13:43:43.648Z,100795.13
2023-10-03T13:46:14.518Z,100807.19
2023-10-03T13:48:45.639Z,100812.31
2023-10-03T13:51:16.342Z,100805.97
2023-10-03T13:53:46.819Z,100824.72
2023-10-03T13:56:19.806Z,100824.25
2023-10-03T13:58:51.321Z,100831.44
2023-10-03T14:01:23.032Z,100838.53
2023-10-03T14:03:53.459Z,100836.91
2023-10-03T14:06:27.830Z,100847.78
2023-10-03T14:08:58.913Z,100851.94
2023-10-03T14:11:31.235Z,100863.50
2023-10-03T14:14:01.893Z,100866.81
2023-10-03T14:16:31.217Z,100880.69
2023-10-03T14:19:01.766Z,100886.47
2023-10-03T14:21:45.821Z,100881.38
2023-10-03T14:24:17.896Z,100887.00
2023-10-03T14:26:49.977Z,100896.09
2023-10-03T14:29:22.079Z,100893.78
2023-10-03T14:31:51.505Z,100886.78
2023-10-03T14:34:20.777Z,100888.34
2023-10-03T14:36:49.959Z,100884.34
2023-10-03T14:39:25.994Z,100884.16
2023-10-03T14:41:59.323Z,100882.16
2023-10-03T14:44:28.967Z,100882.59
2023-10-03T14:46:58.694Z,100902.81
2023-10-03T14:49:30.353Z,100900.38
2023-10-03T14:51:59.812Z,100906.81
2023-10-03T14:54:29.065Z,100915.44
2023-10-03T14:56:59.936Z,100921.03
2023-10-03T14:59:29.328Z,100941.69
2023-10-03T15:01:58.489Z,100935.09
2023-10-03T15:04:28.324Z,100930.84
2023-10-03T15:06:58.836Z,100945.78
2023-10-03T15:09:32.437Z,100948.59
2023-10-03T15:12:03.263Z,100948.09
2023-10-03T15:14:32.565Z,100948.78
2023-10-03T15:17:02.301Z,100949.28
2023-10-03T15:19:35.166Z,100944.63
2023-10-03T15:22:05.220Z,100938.50
2023-10-03T15:24:36.018Z,100953.06
2023-10-03T15:27:07.097Z,100958.16
2023-10-03T15:29:36.604Z,100960.81
2023-10-03T15:32:06.727Z,100976.19
2023-10-03T15:34:38.508Z,100986.94
2023-10-03T15:37:10.205Z,100986.59
2023-10-03T15:39:40.475Z,100992.38
2023-10-03T15:42:12.084Z,100987.41
2023-10-03T15:44:51.228Z,100998.63
2023-10-03T15:47:24.439Z,101007.91
2023-10-03T15:49:53.971Z,100997.31
2023-10-03T15:52:23.381Z,101013.03
2023-10-03T15:54:55.166Z,101022.56
2023-10-03T15:57:27.054Z,101026.03
2023-10-03T15:59:56.639Z,101032.41
2023-10-03T16:02:26.477Z,101027.00
2023-10-03T16:04:56.606Z,101030.47
2023-10-03T16:07:26.065Z,101030.59
2023-10-03T16:09:55.394Z,101040.53
2023-10-03T16:12:26.120Z,101055.28
2023-10-03T16:14:55.410Z,101087.28
2023-10-03T16:17:24.790Z,101114.84
2023-10-03T16:19:54.048Z,101126.13
2023-10-03T16:22:23.355Z,101121.03
2023-10-03T16:24:53.562Z,101123.88
2023-10-03T16:27:22.824Z,101137.22
2023-10-03T16:29:54.776Z,101138.59
2023-10-03T16:32:24.420Z,101135.69
2023-10-03T16:34:53.613Z,101151.81
2023-10-03T16:37:22.751Z,101153.00
2023-10-03T16:39:51.914Z,101148.56
2023-10-03T16:42:21.231Z,101156.59
2023-10-03T16:46:00.694Z,101166.19
2023-10-03T16:48:33.145Z,101171.41
2023-10-03T16:51:03.147Z,101168.50
2023-10-03T16:53:34.336Z,101175.59
2023-10-03T16:56:03.742Z,101172.94
2023-10-03T16:58:33.337Z,101186.97
2023-10-03T17:01:03.010Z,101199.16
2023-10-03T17:03:34.678Z,101208.44
2023-10-03T17:06:04.790Z,101209.13
2023-10-03T17:08:34.593Z,101215.66
2023-10-03T17:11:06.842Z,101216.63
2023-10-03T17:13:39.021Z,101224.16
2023-10-03T17:16:08.679Z,101228.63
2023-10-03T17:18:39.261Z,101222.94
2023-10-03T17:21:09.261Z,101223.22
2023-10-03T17:23:39.147Z,101226.97
2023-10-03T17:26:08.779Z,101233.19
2023-10-03T17:28:38.218Z,101247.34
2023-10-03T17:31:07.698Z,101250.41
2023-10-03T17:33:38.482Z,101247.63
2023-10-03T17:36:08.036Z,101277.00
2023-10-03T17:38:37.250Z,101264.03
2023-10-03T17:41:07.884Z,101266.97
2023-10-03T17:43:37.224Z,101277.50
2023-10-03T17:46:06.417Z,101282.84
2023-10-03T17:48:35.918Z,101290.56
2023-10-03T17:55:17.288Z,101308.75
2023-10-03T17:57:46.606Z,101310.81
2023-10-03T18:00:18.315Z,101313.59
2023-10-03T18:02:49.629Z,101325.34
2023-10-03T18:05:20.002Z,101334.16
2023-10-03T18:07:50.174Z,101329.19
2023-10-03T18:10:23.771Z,101329.91
2023-10-03T18:13:00.312Z,101343.13
2023-10-03T18:15:30.881Z,101345.59
2023-10-03T18:18:01.487Z,101336.16
2023-10-03T18:20:33.306Z,101340.78
2023-10-03T18:23:04.754Z,101347.16
2023-10-03T18:25:39.550Z,101351.00
2023-10-03T18:28:10.208Z,101346.00
2023-10-03T18:30:40.617Z,101350.66
2023-10-03T18:33:14.882Z,101356.53
2023-10-03T18:35:44.561Z,101355.88
2023-10-03T18:38:16.026Z,101360.94
2023-10-03T18:40:47.974Z,101367.47
2023-10-03T18:43:17.184Z,101368.44
2023-10-03T18:45:57.430Z,101363.06
2023-10-03T18:48:27.700Z,101370.56
2023-10-03T18:51:02.679Z,101367.09
2023-10-03T18:53:34.209Z,101364.06
2023-10-03T18:56:05.701Z,101368.22
2023-10-03T18:58:34.880Z,101365.75
2023-10-03T19:01:04.136Z,101358.81
2023-10-03T19:03:35.820Z,101378.66
2023-10-03T19:06:10.227Z,101371.19
2023-10-03T19:08:39.679Z,101377.31
2023-10-03T19:11:10.547Z,101387.94
2023-10-03T19:13:39.644Z,101394.47
2023-10-03T19:16:15.873Z,101396.47
2023-10-03T19:18:45.128Z,101391.34
2023-10-03T19:21:14.967Z,101415.59
2023-10-03T19:23:46.377Z,101430.28
2023-10-03T19:26:17.413Z,101427.84
2023-10-03T19:28:46.927Z,101437.50
2023-10-03T19:31:19.844Z,101449.72
2023-10-03T19:33:49.730Z,101455.56
2023-10-03T19:36:21.116Z,101475.25
2023-10-03T19:38:50.618Z,101472.88
2023-10-03T19:41:21.610Z,101482.31
2023-10-03T19:43:51.739Z,101498.38
2023-10-03T19:46:22.549Z,101508.59
2023-10-03T19:48:51.854Z,101511.25
2023-10-03T19:51:21.495Z,101515.94
2023-10-03T19:53:54.062Z,101514.44
2023-10-03T19:56:25.210Z,101525.09
2023-10-03T19:58:56.038Z,101521.00
2023-10-03T20:01:26.897Z,101528.38
2023-10-03T20:03:56.272Z,101519.50
2023-10-03T20:06:26.645Z,101521.16
2023-10-03T20:08:55.841Z,101514.59
2023-10-03T20:11:26.434Z,101514.41
2023-10-03T20:13:55.570Z,101512.00
2023-10-03T20:16:25.657Z,101524.84
2023-10-03T20:18:55.010Z,101524.13
2023-10-03T20:21:24.865Z,101527.59
2023-10-03T20:23:54.058Z,101526.84
2023-10-03T20:26:23.403Z,101541.53
2023-10-03T20:28:54.066Z,101548.84
2023-10-03T20:31:24.960Z,101545.38
2023-10-03T20:33:54.265Z,101544.19
2023-10-03T20:36:23.695Z,101545.38
2023-10-03T20:38:53.431Z,101541.31
2023-10-03T20:41:22.919Z,101536.53
2023-10-03T20:43:53.530Z,101540.25
2023-10-03T20:46:22.740Z,101533.22
2023-10-03T20:48:52.437Z,101531.91
2023-10-03T20:51:22.670Z,101540.06
2023-10-03T20:53:53.063Z,101540.63
2023-10-03T20:56:22.722Z,101544.34
2023-10-03T20:58:55.692Z,101542.31
2023-10-03T21:01:25.369Z,101544.34
2023-10-03T21:03:54.675Z,101547.69
2023-10-03T21:06:23.888Z,101556.09
2023-10-03T21:08:53.243Z,101559.09
2023-10-03T21:11:25.981Z,101557.41
2023-10-03T21:13:56.533Z,101550.81
2023-10-03T21:16:25.650Z,101556.56
2023-10-03T21:18:55.193Z,101557.28
2023-10-03T21:21:24.289Z,101558.00
2023-10-03T21:23:53.800Z,101567.69
2023-10-03T21:26:22.968Z,101574.63
2023-10-03T21:28:52.119Z,101577.50
2023-10-03T21:31:22.683Z,101578.94
2023-10-03T21:33:51.909Z,101576.78
2023-10-03T21:36:21.853Z,101587.66
2023-10-03T21:38:51.064Z,101580.38
2023-10-03T21:41:20.468Z,101584.06
2023-10-03T21:43:49.577Z,101585.41
2023-10-03T21:46:18.784Z,101590.44
2023-10-03T21:48:51.118Z,101589.34
2023-10-03T21:51:20.516Z,101592.25
2023-10-03T21:53:50.816Z,101592.56
2023-10-03T21:56:20.048Z,101592.56
2023-10-03T21:58:49.127Z,101603.94
2023-10-03T22:01:18.364Z,101597.84
2023-10-03T22:03:48.859Z,101590.56
2023-10-03T22:06:19.901Z,101604.19
2023-10-03T22:08:49.321Z,101615.66
2023-10-03T22:11:21.468Z,101612.41
2023-10-03T22:13:50.984Z,101602.84
2023-10-03T22:16:20.265Z,101602.41
2023-10-03T22:18:50.747Z,101603.22
2023-10-03T22:21:20.168Z,101612.66
2023-10-03T22:23:49.297Z,101605.13
2023-10-03T22:26:18.436Z,101598.78
2023-10-03T22:28:47.642Z,101608.84
2023-10-03T22:31:18.224Z,101607.63
2023-10-03T22:33:49.238Z,101613.84
2023-10-03T22:36:22.419Z,101614.34
2023-10-03T22:38:52.866Z,101600.22
2023-10-03T22:41:24.221Z,101605.25
2023-10-03T22:43:53.552Z,101612.03
2023-10-03T22:46:22.860Z,101605.56
2023-10-03T22:48:52.156Z,101611.78
2023-10-03T22:51:22.758Z,101609.16
2023-10-03T22:53:52.529Z,101617.06
2023-10-03T22:56:25.931Z,101615.59
2023-10-03T22:58:55.457Z,101616.28
2023-10-03T23:01:24.790Z,101612.13
2023-10-03T23:03:54.099Z,101616.28
2023-10-03T23:06:24.781Z,101618.44
2023-10-03T23:08:55.736Z,101626.34
2023-10-03T23:11:25.779Z,101624.19
2023-10-03T23:13:55.150Z,101618.44
2023-10-03T23:16:24.217Z,101613.91
2023-10-03T23:18:53.546Z,101628.50
2023-10-03T23:21:24.110Z,101624.31
2023-10-03T23:23:53.562Z,101623.22
2023-10-03T23:26:22.732Z,101627.53
2023-10-03T23:28:51.900Z,101623.59
2023-10-03T23:31:21.477Z,101620.97
2023-10-03T23:33:51.424Z,101629.19
2023-10-03T23:36:21.839Z,101624.91
2023-10-03T23:38:52.445Z,101613.81
2023-10-03T23:41:21.828Z,101618.66
2023-10-03T23:43:51.055Z,101613.91
2023-10-03T23:46:22.953Z,101615.72
2023-10-03T23:48:52.874Z,101615.47
2023-10-03T23:51:22.079Z,101631.16
2023-10-03T23:53:52.688Z,101627.94
2023-10-03T23:56:22.478Z,101635.09
2023-10-03T23:58:53.298Z,101633.56
